createdAt,value
2023-12-30T00:00:18.554Z,72.44
2023-12-30T00:02:49.489Z,71.88
2023-12-30T00:05:17.996Z,72.63
2023-12-30T00:07:46.241Z,74.00
2023-12-30T00:10:13.692Z,74.28
2023-12-30T00:12:41.047Z,76.37
2023-12-30T00:15:09.028Z,75.51
2023-12-30T00:17:36.253Z,75.37
2023-12-30T00:20:04.950Z,76.16
2023-12-30T00:22:32.040Z,74.86
2023-12-30T00:24:59.205Z,76.36
2023-12-30T00:27:26.722Z,75.40
2023-12-30T00:29:53.724Z,74.94
2023-12-30T00:32:20.563Z,74.73
2023-12-30T00:34:47.806Z,75.15
2023-12-30T00:37:20.202Z,76.04
2023-12-30T00:39:48.536Z,75.97
2023-12-30T00:42:15.526Z,74.67
2023-12-30T00:44:42.632Z,74.40
2023-12-30T00:47:09.640Z,75.11
2023-12-30T00:49:36.886Z,73.89
2023-12-30T00:52:04.286Z,74.39
2023-12-30T00:54:38.006Z,74.27
2023-12-30T00:57:08.655Z,74.00
2023-12-30T00:59:35.625Z,75.10
2023-12-30T01:02:02.644Z,73.85
2023-12-30T01:04:29.701Z,73.83
2023-12-30T01:06:56.694Z,73.66
2023-12-30T01:09:23.605Z,73.77
2023-12-30T01:11:50.541Z,74.04
2023-12-30T01:14:17.505Z,72.01
2023-12-30T01:16:44.500Z,72.12
2023-12-30T01:19:12.101Z,71.78
2023-12-30T01:21:39.145Z,72.91
2023-12-30T01:24:06.534Z,71.48
2023-12-30T01:26:33.414Z,71.30
2023-12-30T01:29:00.449Z,69.84
2023-12-30T01:31:27.408Z,70.24
2023-12-30T01:33:55.403Z,68.95
2023-12-30T01:36:22.541Z,68.52
2023-12-30T01:38:49.647Z,67.84
2023-12-30T01:41:20.164Z,68.31
2023-12-30T01:43:47.290Z,65.31
2023-12-30T01:46:14.969Z,66.12
2023-12-30T01:48:42.355Z,66.61
2023-12-30T01:51:23.855Z,66.95
2023-12-30T01:53:54.556Z,67.61
2023-12-30T01:56:24.091Z,65.61
2023-12-30T01:58:53.394Z,64.87
2023-12-30T02:01:25.333Z,63.57
2023-12-30T02:03:52.415Z,63.22
2023-12-30T02:06:19.810Z,62.98
2023-12-30T02:08:48.727Z,62.02
2023-12-30T02:11:16.932Z,61.99
2023-12-30T02:13:45.837Z,62.03
2023-12-30T02:16:13.410Z,61.31
2023-12-30T02:18:40.878Z,60.73
2023-12-30T02:21:08.306Z,60.32
2023-12-30T02:23:35.402Z,60.92
2023-12-30T02:26:03.163Z,59.86
2023-12-30T02:28:30.320Z,59.74
2023-12-30T02:30:57.760Z,58.83
2023-12-30T02:33:25.040Z,57.98
2023-12-30T02:35:53.136Z,59.93
2023-12-30T02:38:20.113Z,59.85
2023-12-30T02:40:47.630Z,60.03
2023-12-30T02:43:14.847Z,58.07
2023-12-30T02:45:41.884Z,56.85
2023-12-30T02:48:09.851Z,55.87
2023-12-30T02:50:37.103Z,57.83
2023-12-30T02:53:04.422Z,57.82
2023-12-30T02:55:31.502Z,56.70
2023-12-30T02:57:59.051Z,55.33
2023-12-30T03:00:25.962Z,55.87
2023-12-30T03:05:07.998Z,55.20
2023-12-30T03:07:37.858Z,57.57
2023-12-30T03:10:06.289Z,56.78
2023-12-30T03:12:33.268Z,57.00
2023-12-30T03:15:00.463Z,57.53
2023-12-30T03:17:27.581Z,56.68
2023-12-30T03:19:54.997Z,57.67
2023-12-30T03:22:22.104Z,55.93
2023-12-30T03:24:49.160Z,56.26
2023-12-30T03:27:16.176Z,57.13
2023-12-30T03:29:46.277Z,56.28
2023-12-30T03:32:13.268Z,57.24
2023-12-30T03:34:40.818Z,55.48
2023-12-30T03:37:07.989Z,56.76
2023-12-30T03:39:35.064Z,56.48
2023-12-30T03:42:03.813Z,56.51
2023-12-30T03:44:32.801Z,57.90
2023-12-30T03:46:59.768Z,57.12
2023-12-30T03:49:27.135Z,57.58
2023-12-30T03:51:54.190Z,58.76
2023-12-30T03:54:22.436Z,58.74
2023-12-30T03:56:49.426Z,57.30
2023-12-30T03:59:16.338Z,56.28
2023-12-30T04:01:44.938Z,57.59
2023-12-30T04:04:12.285Z,56.91
2023-12-30T04:06:39.220Z,58.42
2023-12-30T04:09:06.278Z,57.89
2023-12-30T04:11:33.293Z,57.36
2023-12-30T04:14:00.438Z,57.90
2023-12-30T04:16:27.421Z,56.73
2023-12-30T04:18:54.433Z,57.26
2023-12-30T04:21:21.593Z,57.11
2023-12-30T04:23:48.627Z,57.78
2023-12-30T04:26:15.880Z,56.78
2023-12-30T04:28:42.812Z,57.08
2023-12-30T04:31:10.079Z,56.84
2023-12-30T04:33:37.406Z,56.91
2023-12-30T04:36:04.869Z,56.02
2023-12-30T04:38:31.841Z,56.68
2023-12-30T04:40:58.834Z,57.06
2023-12-30T04:43:25.862Z,55.16
2023-12-30T04:45:53.323Z,56.19
2023-12-30T04:48:20.423Z,56.72
2023-12-30T04:50:47.547Z,55.77
2023-12-30T04:53:14.512Z,56.18
2023-12-30T04:55:42.569Z,57.00
2023-12-30T04:58:09.750Z,56.46
2023-12-30T05:00:36.743Z,56.36
2023-12-30T05:03:04.445Z,56.71
2023-12-30T05:05:31.664Z,58.07
2023-12-30T05:07:58.775Z,57.51
2023-12-30T05:10:25.752Z,56.18
2023-12-30T05:12:52.756Z,57.24
2023-12-30T05:15:19.936Z,56.94
2023-12-30T05:17:46.992Z,58.35
2023-12-30T05:20:17.934Z,57.19
2023-12-30T05:22:45.605Z,55.98
2023-12-30T05:25:13.101Z,55.82
2023-12-30T05:27:40.298Z,55.00
2023-12-30T05:30:09.036Z,55.16
2023-12-30T05:32:36.807Z,54.87
2023-12-30T05:35:04.678Z,54.36
2023-12-30T05:37:31.851Z,53.84
2023-12-30T05:39:59.152Z,54.91
2023-12-30T05:42:26.392Z,55.27
2023-12-30T05:44:53.400Z,55.69
2023-12-30T05:47:20.358Z,56.87
2023-12-30T05:49:47.427Z,55.55
2023-12-30T05:52:14.384Z,55.60
2023-12-30T05:54:41.318Z,55.01
2023-12-30T05:57:08.259Z,56.15
2023-12-30T05:59:35.501Z,55.02
2023-12-30T06:02:02.607Z,55.30
2023-12-30T06:04:30.656Z,56.54
2023-12-30T06:06:57.772Z,57.06
2023-12-30T06:09:24.827Z,55.58
2023-12-30T06:11:51.857Z,56.81
2023-12-30T06:14:19.016Z,55.22
2023-12-30T06:16:45.950Z,56.69
2023-12-30T06:19:16.785Z,56.42
2023-12-30T06:21:44.881Z,56.20
2023-12-30T06:24:11.932Z,55.51
2023-12-30T06:26:41.889Z,54.68
2023-12-30T06:29:09.568Z,54.17
2023-12-30T06:31:45.521Z,54.64
2023-12-30T06:34:12.847Z,55.38
2023-12-30T06:36:44.331Z,54.73
2023-12-30T06:39:21.302Z,54.91
2023-12-30T06:41:48.397Z,53.60
2023-12-30T06:44:15.865Z,54.09
2023-12-30T06:46:43.062Z,52.07
2023-12-30T06:49:10.322Z,52.43
2023-12-30T06:51:37.466Z,51.99
2023-12-30T06:54:04.533Z,53.35
2023-12-30T06:56:31.588Z,53.37
2023-12-30T06:58:58.563Z,53.96
2023-12-30T07:01:26.500Z,53.10
2023-12-30T07:03:54.143Z,53.51
2023-12-30T07:06:21.181Z,53.59
2023-12-30T07:08:48.265Z,51.72
2023-12-30T07:11:15.308Z,52.71
2023-12-30T07:13:42.505Z,51.62
2023-12-30T07:16:09.831Z,50.92
2023-12-30T07:18:37.061Z,51.94
2023-12-30T07:21:05.356Z,53.18
2023-12-30T07:23:32.500Z,51.24
2023-12-30T07:26:00.322Z,48.36
2023-12-30T07:28:27.275Z,48.97
2023-12-30T07:30:54.431Z,51.86
2023-12-30T07:33:21.469Z,51.10
2023-12-30T07:35:48.627Z,50.06
2023-12-30T07:38:15.644Z,51.07
2023-12-30T07:40:42.806Z,50.05
2023-12-30T07:43:10.067Z,49.48
2023-12-30T07:45:37.130Z,50.44
2023-12-30T07:48:04.594Z,51.91
2023-12-30T07:50:31.682Z,51.55
2023-12-30T07:52:58.647Z,56.43
2023-12-30T07:55:25.769Z,56.79
2023-12-30T07:57:52.891Z,53.90
2023-12-30T08:00:20.861Z,53.62
2023-12-30T08:02:48.496Z,52.81
2023-12-30T08:05:15.902Z,54.44
2023-12-30T08:07:42.979Z,52.69
2023-12-30T08:10:12.666Z,51.83
2023-12-30T08:12:40.313Z,51.90
2023-12-30T08:15:09.470Z,52.02
2023-12-30T08:17:37.322Z,51.65
2023-12-30T08:20:05.922Z,54.00
2023-12-30T08:22:33.690Z,52.60
2023-12-30T08:25:01.456Z,52.29
2023-12-30T08:27:30.366Z,51.69
2023-12-30T08:29:57.767Z,51.36
2023-12-30T08:32:24.967Z,50.70
2023-12-30T08:34:53.150Z,50.83
2023-12-30T08:37:20.601Z,52.90
2023-12-30T08:39:48.833Z,51.75
2023-12-30T08:42:16.567Z,51.85
2023-12-30T08:44:46.834Z,52.68
2023-12-30T08:47:14.650Z,53.71
2023-12-30T08:49:42.159Z,52.13
2023-12-30T08:52:09.618Z,52.98
2023-12-30T08:54:40.359Z,52.52
2023-12-30T08:57:07.512Z,52.30
2023-12-30T08:59:34.588Z,52.00
2023-12-30T09:02:02.102Z,51.91
2023-12-30T09:04:29.605Z,52.05
2023-12-30T09:06:57.253Z,51.29
2023-12-30T09:09:24.681Z,50.42
2023-12-30T09:11:51.938Z,51.91
2023-12-30T09:14:20.902Z,52.92
2023-12-30T09:16:47.968Z,52.61
2023-12-30T09:19:15.565Z,52.93
2023-12-30T09:21:43.210Z,52.02
2023-12-30T09:24:10.391Z,52.54
2023-12-30T09:26:37.457Z,53.44
2023-12-30T09:29:04.589Z,54.07
2023-12-30T09:31:31.581Z,52.66
2023-12-30T09:33:59.322Z,53.27
2023-12-30T09:36:26.442Z,52.66
2023-12-30T09:38:53.804Z,54.04
2023-12-30T09:41:26.023Z,53.01
2023-12-30T09:43:55.561Z,51.93
2023-12-30T09:46:24.080Z,52.49
2023-12-30T09:48:54.430Z,54.40
2023-12-30T09:51:22.391Z,53.22
2023-12-30T09:53:49.631Z,53.39
2023-12-30T09:56:19.950Z,53.08
2023-12-30T09:58:48.009Z,53.45
2023-12-30T10:01:15.962Z,54.01
2023-12-30T10:03:43.740Z,53.82
2023-12-30T10:06:15.627Z,53.94
2023-12-30T10:08:43.799Z,54.57
2023-12-30T10:11:12.095Z,54.08
2023-12-30T10:13:40.030Z,53.66
2023-12-30T10:16:07.814Z,53.99
2023-12-30T10:18:37.079Z,54.48
2023-12-30T10:21:09.426Z,54.54
2023-12-30T10:23:38.611Z,54.75
2023-12-30T10:26:06.417Z,54.64
2023-12-30T10:28:33.812Z,54.31
2023-12-30T10:31:06.603Z,54.05
2023-12-30T10:33:36.198Z,54.39
2023-12-30T10:36:08.362Z,53.67
2023-12-30T10:38:37.643Z,54.61
2023-12-30T10:41:07.740Z,54.38
2023-12-30T10:43:36.252Z,54.53
2023-12-30T10:46:04.735Z,55.35
2023-12-30T10:48:35.073Z,56.33
2023-12-30T10:51:03.747Z,56.39
2023-12-30T10:53:41.513Z,55.83
2023-12-30T10:56:12.739Z,55.88
2023-12-30T10:58:42.044Z,56.46
2023-12-30T11:01:11.412Z,56.71
2023-12-30T11:03:39.553Z,57.50
2023-12-30T11:06:24.579Z,58.02
2023-12-30T11:09:02.200Z,58.21
2023-12-30T11:11:29.229Z,57.10
2023-12-30T11:13:59.316Z,57.75
2023-12-30T11:16:26.902Z,56.38
2023-12-30T11:18:57.351Z,57.07
2023-12-30T11:21:44.350Z,57.21
2023-12-30T11:24:13.337Z,58.24
2023-12-30T11:26:46.177Z,58.21
2023-12-30T11:29:18.589Z,59.01
2023-12-30T11:31:50.964Z,58.18
2023-12-30T11:34:18.493Z,59.13
2023-12-30T11:36:51.316Z,60.38
2023-12-30T11:39:29.489Z,59.68
2023-12-30T11:41:59.901Z,58.80
2023-12-30T11:44:29.014Z,59.00
2023-12-30T11:46:56.030Z,56.68
2023-12-30T11:49:25.428Z,58.22
2023-12-30T11:52:06.188Z,57.38
2023-12-30T11:54:34.445Z,56.08
2023-12-30T11:57:02.074Z,56.28
2023-12-30T11:59:29.639Z,55.26
2023-12-30T12:02:13.457Z,56.39
2023-12-30T12:04:42.186Z,56.23
2023-12-30T12:07:09.311Z,55.83
2023-12-30T12:09:39.031Z,56.22
2023-12-30T12:12:06.867Z,56.12
2023-12-30T12:14:34.278Z,56.68
2023-12-30T12:17:06.226Z,57.20
2023-12-30T12:19:33.318Z,56.92
2023-12-30T12:22:03.501Z,57.42
2023-12-30T12:24:33.425Z,57.44
2023-12-30T12:27:00.454Z,60.45
2023-12-30T12:29:27.567Z,68.38
2023-12-30T12:31:54.528Z,70.51
2023-12-30T12:34:26.930Z,57.99
2023-12-30T12:36:55.290Z,54.58
2023-12-30T12:39:22.273Z,54.59
2023-12-30T12:41:49.744Z,59.24
2023-12-30T12:44:16.672Z,58.28
2023-12-30T12:46:43.690Z,62.72
2023-12-30T12:49:10.804Z,60.54
2023-12-30T12:51:40.653Z,58.14
2023-12-30T12:54:07.996Z,55.44
2023-12-30T12:56:35.287Z,54.19
2023-12-30T12:59:02.249Z,53.60
2023-12-30T13:01:29.551Z,54.06
2023-12-30T13:03:59.315Z,53.73
2023-12-30T13:06:26.460Z,53.71
2023-12-30T13:08:57.381Z,55.04
2023-12-30T13:11:28.492Z,55.62
2023-12-30T13:13:56.906Z,55.14
2023-12-30T13:16:27.747Z,53.78
2023-12-30T13:18:54.880Z,61.74
2023-12-30T13:21:21.888Z,62.76
2023-12-30T13:23:51.234Z,56.53
2023-12-30T13:26:19.850Z,53.73
2023-12-30T13:28:47.454Z,53.79
2023-12-30T13:31:18.672Z,53.49
2023-12-30T13:33:46.088Z,53.45
2023-12-30T13:36:13.509Z,53.80
2023-12-30T13:38:46.347Z,52.46
2023-12-30T13:41:20.663Z,53.62
2023-12-30T13:43:58.898Z,53.57
2023-12-30T13:46:38.598Z,54.13
2023-12-30T13:49:10.569Z,53.41
2023-12-30T13:51:39.071Z,54.35
2023-12-30T13:54:06.034Z,54.11
2023-12-30T13:56:37.141Z,55.48
2023-12-30T13:59:09.895Z,54.34
2023-12-30T14:01:38.615Z,53.00
2023-12-30T14:04:09.115Z,52.88
2023-12-30T14:06:39.536Z,52.81
2023-12-30T14:09:25.606Z,53.14
2023-12-30T14:11:59.171Z,53.41
2023-12-30T14:14:30.579Z,54.45
2023-12-30T14:16:59.842Z,60.50
2023-12-30T14:19:26.887Z,57.19
2023-12-30T14:21:53.919Z,55.00
2023-12-30T14:24:21.078Z,53.89
2023-12-30T14:26:48.208Z,53.44
2023-12-30T14:29:15.194Z,53.30
2023-12-30T14:31:42.256Z,53.71
2023-12-30T14:34:10.951Z,54.62
2023-12-30T14:36:38.363Z,55.13
2023-12-30T14:39:09.531Z,54.47
2023-12-30T14:41:38.225Z,52.34
2023-12-30T14:44:05.497Z,59.53
2023-12-30T14:46:32.739Z,53.21
2023-12-30T14:49:00.386Z,51.11
2023-12-30T14:51:28.592Z,51.72
2023-12-30T14:53:55.629Z,52.14
2023-12-30T14:56:24.155Z,52.09
2023-12-30T14:58:51.289Z,52.09
2023-12-30T15:01:18.445Z,51.81
2023-12-30T15:03:45.504Z,51.40
2023-12-30T15:06:14.026Z,52.45
2023-12-30T15:08:41.211Z,52.65
2023-12-30T15:11:10.052Z,54.44
2023-12-30T15:13:37.097Z,53.07
2023-12-30T15:16:04.478Z,53.97
2023-12-30T15:18:32.150Z,53.79
2023-12-30T15:21:00.536Z,53.11
2023-12-30T15:23:28.460Z,52.47
2023-12-30T15:25:55.511Z,54.34
2023-12-30T15:28:22.555Z,53.76
2023-12-30T15:30:50.385Z,53.46
2023-12-30T15:33:17.797Z,53.84
2023-12-30T15:35:44.912Z,51.88
2023-12-30T15:38:11.975Z,51.67
2023-12-30T15:40:41.996Z,51.27
2023-12-30T15:43:10.503Z,51.50
2023-12-30T15:45:38.107Z,52.95
2023-12-30T15:48:05.659Z,52.07
2023-12-30T15:50:32.679Z,52.51
2023-12-30T15:52:59.762Z,52.19
2023-12-30T15:55:26.780Z,54.17
2023-12-30T15:57:53.749Z,52.33
2023-12-30T16:00:20.960Z,52.92
2023-12-30T16:02:47.962Z,52.30
2023-12-30T16:05:15.002Z,52.41
2023-12-30T16:07:42.227Z,52.12
2023-12-30T16:10:09.719Z,52.36
2023-12-30T16:12:37.098Z,54.28
2023-12-30T16:15:04.719Z,52.50
2023-12-30T16:17:31.785Z,52.51
2023-12-30T16:20:00.052Z,72.13
2023-12-30T16:22:27.518Z,53.48
2023-12-30T16:24:54.799Z,52.63
2023-12-30T16:27:22.710Z,54.58
2023-12-30T16:29:50.545Z,55.44
2023-12-30T16:32:17.679Z,58.33
2023-12-30T16:34:44.733Z,56.21
2023-12-30T16:37:12.116Z,53.73
2023-12-30T16:39:41.188Z,53.62
2023-12-30T16:42:08.918Z,54.23
2023-12-30T16:44:35.996Z,54.63
2023-12-30T16:47:03.478Z,54.37
2023-12-30T16:49:30.951Z,54.19
2023-12-30T16:51:58.142Z,52.38
2023-12-30T16:54:25.122Z,54.22
2023-12-30T16:56:53.284Z,53.83
2023-12-30T16:59:20.374Z,53.28
2023-12-30T17:01:47.422Z,52.70
2023-12-30T17:04:14.480Z,53.42
2023-12-30T17:06:41.492Z,53.29
2023-12-30T17:09:08.396Z,52.71
2023-12-30T17:11:40.561Z,53.89
2023-12-30T17:14:10.913Z,55.12
2023-12-30T17:16:38.200Z,53.83
2023-12-30T17:19:05.312Z,53.50
2023-12-30T17:21:33.652Z,53.68
2023-12-30T17:24:00.653Z,53.60
2023-12-30T17:26:27.514Z,54.34
2023-12-30T17:28:54.486Z,52.59
2023-12-30T17:31:22.223Z,52.77
2023-12-30T17:33:49.205Z,52.70
2023-12-30T17:36:17.494Z,53.41
2023-12-30T17:38:44.498Z,54.37
2023-12-30T17:41:12.011Z,55.29
2023-12-30T17:43:39.079Z,56.69
2023-12-30T17:46:06.169Z,54.97
2023-12-30T17:48:33.256Z,53.77
2023-12-30T17:51:00.288Z,53.78
2023-12-30T17:53:29.140Z,54.09
2023-12-30T17:55:56.207Z,55.45
2023-12-30T17:58:23.343Z,54.86
2023-12-30T18:00:51.435Z,57.64
2023-12-30T18:03:18.930Z,54.33
2023-12-30T18:05:46.033Z,54.12
2023-12-30T18:08:13.029Z,54.58
2023-12-30T18:10:39.913Z,54.48
2023-12-30T18:13:07.097Z,52.39
2023-12-30T18:15:34.057Z,55.17
2023-12-30T18:18:01.235Z,56.95
2023-12-30T18:20:29.215Z,55.70
2023-12-30T18:22:56.148Z,56.37
2023-12-30T18:25:23.131Z,52.22
2023-12-30T18:27:50.094Z,49.85
2023-12-30T18:30:17.360Z,52.76
2023-12-30T18:32:44.547Z,53.92
2023-12-30T18:35:12.387Z,57.77
2023-12-30T18:37:39.501Z,60.06
2023-12-30T18:40:09.559Z,57.43
2023-12-30T18:42:38.449Z,56.61
2023-12-30T18:45:05.970Z,58.81
2023-12-30T18:47:33.050Z,61.99
2023-12-30T18:50:00.052Z,67.63
2023-12-30T18:52:27.340Z,69.58
2023-12-30T18:54:55.608Z,68.40
2023-12-30T18:57:23.043Z,68.94
2023-12-30T18:59:50.064Z,67.29
2023-12-30T19:02:17.802Z,67.16
2023-12-30T19:04:45.682Z,65.94
2023-12-30T19:07:12.876Z,64.89
2023-12-30T19:09:39.938Z,64.21
2023-12-30T19:12:07.469Z,64.43
2023-12-30T19:14:34.342Z,62.82
2023-12-30T19:17:01.405Z,63.00
2023-12-30T19:19:28.427Z,63.56
2023-12-30T19:21:55.363Z,62.60
2023-12-30T19:24:22.338Z,64.46
2023-12-30T19:26:49.400Z,63.93
2023-12-30T19:29:20.996Z,58.07
2023-12-30T19:31:48.282Z,60.49
2023-12-30T19:34:15.610Z,62.55
2023-12-30T19:36:44.359Z,59.96
2023-12-30T19:39:11.418Z,59.33
2023-12-30T19:41:39.013Z,60.82
2023-12-30T19:44:06.762Z,61.54
2023-12-30T19:46:33.862Z,60.54
2023-12-30T19:49:04.875Z,60.16
2023-12-30T19:51:32.577Z,59.84
2023-12-30T19:53:59.576Z,63.46
2023-12-30T19:56:26.766Z,62.18
2023-12-30T19:58:53.705Z,62.34
2023-12-30T20:01:24.925Z,63.18
2023-12-30T20:03:52.775Z,64.71
2023-12-30T20:06:20.002Z,65.06
2023-12-30T20:08:47.077Z,64.93
2023-12-30T20:11:14.082Z,65.26
2023-12-30T20:13:41.332Z,66.06
2023-12-30T20:16:08.931Z,64.55
2023-12-30T20:18:36.426Z,65.32
2023-12-30T20:21:04.623Z,66.86
2023-12-30T20:23:34.435Z,67.77
2023-12-30T20:26:02.790Z,67.07
2023-12-30T20:28:29.871Z,69.39
2023-12-30T20:30:56.918Z,68.06
2023-12-30T20:33:23.963Z,69.35
2023-12-30T20:35:51.053Z,68.46
2023-12-30T20:38:18.055Z,69.19
2023-12-30T20:40:47.056Z,67.10
2023-12-30T20:43:14.551Z,70.00
2023-12-30T20:49:01.724Z,73.78
2023-12-30T20:52:06.128Z,73.04
2023-12-30T20:54:33.609Z,72.11
2023-12-30T20:57:00.575Z,70.94
2023-12-30T20:59:27.519Z,71.85
2023-12-30T21:01:55.559Z,72.09
2023-12-30T21:04:22.587Z,70.83
2023-12-30T21:06:49.585Z,68.37
2023-12-30T21:09:17.794Z,67.47
2023-12-30T21:11:46.067Z,69.15
2023-12-30T21:14:13.008Z,68.99
2023-12-30T21:16:42.204Z,69.47
2023-12-30T21:19:10.782Z,68.92
2023-12-30T21:21:40.453Z,69.22
2023-12-30T21:24:07.903Z,69.90
2023-12-30T21:26:34.903Z,67.84
2023-12-30T21:29:01.856Z,67.81
2023-12-30T21:31:30.215Z,69.05
2023-12-30T21:33:57.190Z,68.00
2023-12-30T21:36:25.475Z,71.65
2023-12-30T21:38:52.916Z,72.70
2023-12-30T21:41:24.698Z,74.57
2023-12-30T21:43:51.790Z,68.60
2023-12-30T21:46:18.850Z,70.75
2023-12-30T21:48:46.044Z,71.50
2023-12-30T21:51:14.556Z,70.53
2023-12-30T21:53:46.190Z,67.68
2023-12-30T21:56:13.875Z,69.31
2023-12-30T21:58:40.956Z,66.80
2023-12-30T22:01:11.261Z,67.35
2023-12-30T22:03:38.992Z,68.49
2023-12-30T22:06:06.874Z,67.03
2023-12-30T22:08:33.932Z,68.22
2023-12-30T22:11:01.060Z,67.52
2023-12-30T22:13:27.970Z,72.26
2023-12-30T22:15:54.916Z,71.42
2023-12-30T22:18:21.873Z,69.99
2023-12-30T22:20:48.876Z,70.79
2023-12-30T22:23:17.034Z,70.37
2023-12-30T22:25:44.928Z,69.81
2023-12-30T22:28:11.952Z,70.29
2023-12-30T22:30:39.731Z,72.31
2023-12-30T22:33:06.907Z,69.78
2023-12-30T22:35:34.015Z,69.55
2023-12-30T22:38:02.262Z,74.68
2023-12-30T22:40:29.396Z,73.78
2023-12-30T22:42:56.948Z,71.00
2023-12-30T22:45:24.295Z,70.35
2023-12-30T22:47:51.391Z,69.99
2023-12-30T22:50:22.014Z,71.51
2023-12-30T22:52:50.106Z,70.59
2023-12-30T22:55:17.572Z,69.48
2023-12-30T22:57:45.114Z,72.26
2023-12-30T23:00:15.061Z,71.20
2023-12-30T23:02:42.143Z,70.07
2023-12-30T23:05:09.871Z,69.03
2023-12-30T23:07:37.091Z,70.12
2023-12-30T23:10:05.842Z,69.75
2023-12-30T23:12:32.887Z,66.43
2023-12-30T23:15:00.067Z,66.50
2023-12-30T23:17:27.166Z,69.98
2023-12-30T23:19:54.155Z,70.74
2023-12-30T23:22:21.154Z,68.84
2023-12-30T23:24:48.103Z,69.52
2023-12-30T23:27:15.378Z,71.67
2023-12-30T23:29:42.412Z,72.49
2023-12-30T23:32:09.326Z,72.74
2023-12-30T23:34:43.210Z,70.44
2023-12-30T23:37:16.488Z,71.31
2023-12-30T23:39:46.040Z,72.30
2023-12-30T23:42:13.218Z,73.81
2023-12-30T23:44:40.107Z,74.88
2023-12-30T23:47:07.240Z,72.43
2023-12-30T23:49:34.195Z,72.64
2023-12-30T23:52:01.606Z,76.52
2023-12-30T23:54:28.554Z,77.66
2023-12-30T23:56:57.108Z,77.31
2023-12-30T23:59:24.209Z,77.55
